This is the latest recevied weather packets stored in our database for station/object WC4PEM-12. If no packets are shown the sender has not sent any weather packets the latest 10 day(s).
| Time | Temp. | Humidity | Pressure | Rain* | Wind** | Luminosity | Snow |
|---|---|---|---|---|---|---|---|
| 1777485794 | 31.67° C | 47% | 1015.2 hPa | 0 mm | - | - | - |
| 1777485494 | 31.11° C | 49% | 1015 hPa | 0 mm | - | - | - |
| 1777485194 | 31.11° C | 47% | 1015.1 hPa | 0 mm | - | - | - |
| 1777484929 | 30.56° C | 52% | 1015.6 hPa | 0 mm | - | - | - |
| 1777484894 | 31.11° C | 48% | 1015.1 hPa | 0 mm | - | - | - |
| 1777484594 | 30.56° C | 49% | 1015.2 hPa | 0 mm | - | - | - |
| 1777484294 | 30.56° C | 52% | 1015.3 hPa | 0 mm | - | - | - |
| 1777483994 | 30.56° C | 52% | 1015.2 hPa | 0 mm | - | - | - |
| 1777483750 | 30.56° C | 51% | 1015.6 hPa | 0 mm | - | - | - |
| 1777483694 | 30.56° C | 51% | 1015.6 hPa | 0 mm | - | - | - |
| 1777483394 | 30.56° C | 52% | 1015.6 hPa | 0 mm | - | - | - |
| 1777483131 | 30.56° C | 53% | 1015.9 hPa | 0 mm | - | - | - |
| 1777483094 | 30.56° C | 53% | 1015.9 hPa | 0 mm | - | - | - |
| 1777482794 | 30.56° C | 53% | 1015.9 hPa | 0 mm | - | - | - |
| 1777482592 | 30.56° C | 52% | 1015.8 hPa | 0 mm | - | - | - |
| 1777482547 | 30.56° C | 52% | 1015.8 hPa | 0 mm | - | - | - |
| 1777482494 | 30.56° C | 52% | 1015.8 hPa | 0 mm | - | - | - |
| 1777482194 | 30.56° C | 53% | 1015.9 hPa | 0 mm | - | - | - |
| 1777482025 | 30° C | 54% | 1016.1 hPa | 0 mm | - | - | - |
| 1777481894 | 30° C | 54% | 1016.1 hPa | 0 mm | - | - | - |
| 1777481594 | 29.44° C | 53% | 1016.2 hPa | 0 mm | - | - | - |
| 1777481418 | 29.44° C | 52% | 1016.2 hPa | 0 mm | - | - | - |
| 1777481294 | 29.44° C | 52% | 1016.2 hPa | 0 mm | - | - | - |
| 1777480994 | 30° C | 54% | 1016.6 hPa | 0 mm | - | - | - |
| 1777480803 | 29.44° C | 56% | 1016.8 hPa | 0 mm | - | - | - |
* Rain latest hour (hover to see other rain measurements)
** Current wind speed in m/s (hover to see current wind gust speed)